createdAt,value
2023-03-26T00:02:00.683Z,43.63
2023-03-26T00:04:29.440Z,40.83
2023-03-26T00:06:58.183Z,43.13
2023-03-26T00:09:26.932Z,46.13
2023-03-26T00:11:56.555Z,43.55
2023-03-26T00:14:25.341Z,42.13
2023-03-26T00:16:54.684Z,44.13
2023-03-26T00:19:23.822Z,42.72
2023-03-26T00:21:54.151Z,42.35
2023-03-26T00:24:30.358Z,41.95
2023-03-26T00:27:00.671Z,42.17
2023-03-26T00:29:29.392Z,44.20
2023-03-26T00:31:58.378Z,42.15
2023-03-26T00:34:27.832Z,44.75
2023-03-26T00:36:56.808Z,42.90
2023-03-26T00:39:25.501Z,44.33
2023-03-26T00:41:55.280Z,44.97
2023-03-26T00:44:24.286Z,44.97
2023-03-26T00:46:53.637Z,43.88
2023-03-26T00:49:22.341Z,42.13
2023-03-26T00:51:51.093Z,42.47
2023-03-26T00:54:20.072Z,42.15
2023-03-26T00:56:48.959Z,43.03
2023-03-26T00:59:18.044Z,44.55
2023-03-26T01:01:48.001Z,43.90
2023-03-26T01:04:28.525Z,43.00
2023-03-26T01:07:01.878Z,43.08
2023-03-26T01:09:37.588Z,40.63
2023-03-26T01:12:08.668Z,41.65
2023-03-26T01:14:37.994Z,43.45
2023-03-26T01:17:10.080Z,41.63
2023-03-26T01:20:01.244Z,41.90
2023-03-26T01:22:29.968Z,40.33
2023-03-26T01:24:58.704Z,40.47
2023-03-26T01:27:36.685Z,39.78
2023-03-26T01:30:15.139Z,37.83
2023-03-26T01:33:02.901Z,37.33
2023-03-26T01:35:51.977Z,35.47
2023-03-26T01:38:56.361Z,36.42
2023-03-26T01:42:00.730Z,36.42
2023-03-26T01:44:41.775Z,34.42
2023-03-26T01:47:13.097Z,36.22
2023-03-26T01:49:41.846Z,34.58
2023-03-26T01:52:23.248Z,33.15
2023-03-26T01:54:52.309Z,32.13
2023-03-26T01:57:23.965Z,29.83
2023-03-26T02:00:19.212Z,29.40
2023-03-26T02:03:04.452Z,29.95
2023-03-26T02:05:48.141Z,28.08
2023-03-26T02:08:25.356Z,27.25
2023-03-26T02:10:58.683Z,26.67
2023-03-26T02:13:27.707Z,27.48
2023-03-26T02:16:01.883Z,26.45
2023-03-26T02:18:37.201Z,26.90
2023-03-26T02:21:11.253Z,25.58
2023-03-26T02:23:41.983Z,28.02
2023-03-26T02:26:12.473Z,26.42
2023-03-26T02:28:41.553Z,25.75
2023-03-26T02:31:12.052Z,25.58
2023-03-26T02:33:41.156Z,25.02
2023-03-26T02:36:10.219Z,25.65
2023-03-26T02:38:39.050Z,26.65
2023-03-26T02:41:07.831Z,25.95
2023-03-26T02:43:36.660Z,26.15
2023-03-26T02:46:05.636Z,24.10
2023-03-26T02:48:37.421Z,24.65
2023-03-26T02:51:07.693Z,24.90
2023-03-26T02:53:38.405Z,25.05
2023-03-26T02:56:07.694Z,22.35
2023-03-26T02:58:36.386Z,23.90
2023-03-26T03:01:06.338Z,24.20
2023-03-26T03:03:36.320Z,28.77
2023-03-26T03:06:05.263Z,23.42
2023-03-26T03:08:35.005Z,23.15
2023-03-26T03:11:10.219Z,24.58
2023-03-26T03:13:39.031Z,22.75
2023-03-26T03:16:08.774Z,21.58
2023-03-26T03:18:38.571Z,22.00
2023-03-26T03:21:07.866Z,23.15
2023-03-26T03:23:36.882Z,23.75
2023-03-26T03:26:07.689Z,22.88
2023-03-26T03:28:36.498Z,23.40
2023-03-26T03:31:06.844Z,22.13
2023-03-26T03:33:36.724Z,22.98
2023-03-26T03:36:20.828Z,21.52
2023-03-26T03:38:52.134Z,23.20
2023-03-26T03:41:20.919Z,22.27
2023-03-26T03:43:49.714Z,22.77
2023-03-26T03:46:18.500Z,23.30
2023-03-26T03:48:50.690Z,23.27
2023-03-26T03:51:19.998Z,24.40
2023-03-26T03:53:49.020Z,22.42
2023-03-26T03:56:20.075Z,23.75
2023-03-26T03:58:49.023Z,24.35
2023-03-26T04:01:18.230Z,24.45
2023-03-26T04:03:47.204Z,23.55
2023-03-26T04:06:19.747Z,23.70
2023-03-26T04:08:48.635Z,24.55
2023-03-26T04:11:17.403Z,23.30
2023-03-26T04:13:46.917Z,23.67
2023-03-26T04:16:16.337Z,25.42
2023-03-26T04:18:47.461Z,26.42
2023-03-26T04:21:16.815Z,25.45
2023-03-26T04:23:46.206Z,24.65
2023-03-26T04:26:19.557Z,26.60
2023-03-26T04:28:54.335Z,27.40
2023-03-26T04:31:29.947Z,26.88
2023-03-26T04:34:06.524Z,26.10
2023-03-26T04:36:36.514Z,27.75
2023-03-26T04:39:06.310Z,27.27
2023-03-26T04:41:35.052Z,25.95
2023-03-26T04:44:03.894Z,25.70
2023-03-26T04:46:34.519Z,26.38
2023-03-26T04:49:03.722Z,27.52
2023-03-26T04:51:39.551Z,27.58
2023-03-26T04:54:08.997Z,28.42
2023-03-26T04:56:54.996Z,27.20
2023-03-26T04:59:31.279Z,26.85
2023-03-26T05:02:01.216Z,28.23
2023-03-26T05:04:31.530Z,26.38
2023-03-26T05:07:00.666Z,26.23
2023-03-26T05:09:29.839Z,26.20
2023-03-26T05:11:59.365Z,25.95
2023-03-26T05:14:28.060Z,24.42
2023-03-26T05:16:56.888Z,23.15
2023-03-26T05:19:25.665Z,22.38
2023-03-26T05:21:54.577Z,21.95
2023-03-26T05:24:25.570Z,17.50
2023-03-26T05:26:54.355Z,18.02
2023-03-26T05:29:25.107Z,18.52
2023-03-26T05:31:53.906Z,22.38
2023-03-26T05:34:27.354Z,21.38
2023-03-26T05:36:56.447Z,20.10
2023-03-26T05:39:27.490Z,19.15
2023-03-26T05:41:56.373Z,16.95
2023-03-26T05:44:25.132Z,17.10
2023-03-26T05:46:53.886Z,18.60
2023-03-26T05:49:22.935Z,18.92
2023-03-26T05:51:52.765Z,17.52
2023-03-26T05:54:23.135Z,18.77
2023-03-26T05:56:52.234Z,19.02
2023-03-26T05:59:21.013Z,19.67
2023-03-26T06:01:51.792Z,20.00
2023-03-26T06:04:21.061Z,19.50
2023-03-26T06:06:49.874Z,18.65
2023-03-26T06:09:19.617Z,19.92
2023-03-26T06:11:48.583Z,19.52
2023-03-26T06:14:17.988Z,18.80
2023-03-26T06:16:46.708Z,21.23
2023-03-26T06:19:15.586Z,21.05
2023-03-26T06:21:44.294Z,20.27
2023-03-26T06:24:13.129Z,22.42
2023-03-26T06:26:42.136Z,21.85
2023-03-26T06:29:11.404Z,21.90
2023-03-26T06:31:40.166Z,22.27
2023-03-26T06:34:09.500Z,23.88
2023-03-26T06:36:38.225Z,22.50
2023-03-26T06:39:07.590Z,21.67
2023-03-26T06:41:37.552Z,21.45
2023-03-26T06:44:06.260Z,20.17
2023-03-26T06:46:35.023Z,20.35
2023-03-26T06:49:04.107Z,19.60
2023-03-26T06:51:32.909Z,20.38
2023-03-26T06:54:01.796Z,20.75
2023-03-26T06:56:30.632Z,19.63
2023-03-26T06:58:59.492Z,19.17
2023-03-26T07:01:28.238Z,20.55
2023-03-26T07:03:57.183Z,20.17
2023-03-26T07:06:28.870Z,19.80
2023-03-26T07:08:58.422Z,19.30
2023-03-26T07:11:27.953Z,19.60
2023-03-26T07:14:00.499Z,20.23
2023-03-26T07:16:29.325Z,19.27
2023-03-26T07:18:58.130Z,18.30
2023-03-26T07:21:27.249Z,19.08
2023-03-26T07:23:56.710Z,18.92
2023-03-26T07:26:32.471Z,20.05
2023-03-26T07:29:14.454Z,20.45
2023-03-26T07:32:01.949Z,20.17
2023-03-26T07:34:39.509Z,19.48
2023-03-26T07:37:28.176Z,19.02
2023-03-26T07:40:09.851Z,19.00
2023-03-26T07:42:41.492Z,23.10
2023-03-26T07:45:26.100Z,24.87
2023-03-26T07:47:56.309Z,21.17
2023-03-26T07:50:26.541Z,21.70
2023-03-26T07:52:55.543Z,21.25
2023-03-26T07:55:25.564Z,22.17
2023-03-26T07:57:56.423Z,20.52
2023-03-26T08:00:35.296Z,20.75
2023-03-26T08:03:27.838Z,20.67
2023-03-26T08:06:17.404Z,21.00
2023-03-26T08:09:06.160Z,23.23
2023-03-26T08:11:36.824Z,22.55
2023-03-26T08:14:22.783Z,22.35
2023-03-26T08:17:12.152Z,22.88
2023-03-26T08:19:52.801Z,22.58
2023-03-26T08:22:28.344Z,22.00
2023-03-26T08:25:18.863Z,22.70
2023-03-26T08:27:50.642Z,23.80
2023-03-26T08:30:23.272Z,23.65
2023-03-26T08:32:59.041Z,23.25
2023-03-26T08:35:29.572Z,23.00
2023-03-26T08:37:58.771Z,22.20
2023-03-26T08:40:53.737Z,22.40
2023-03-26T08:43:46.124Z,24.05
2023-03-26T08:46:16.817Z,23.10
2023-03-26T08:48:49.991Z,23.60
2023-03-26T08:51:50.105Z,23.60
2023-03-26T08:54:36.200Z,23.58
2023-03-26T08:57:32.289Z,23.75
2023-03-26T09:00:18.262Z,24.65
2023-03-26T09:03:06.289Z,25.13
2023-03-26T09:06:03.732Z,25.45
2023-03-26T09:08:54.388Z,24.63
2023-03-26T09:12:02.594Z,24.73
2023-03-26T09:14:49.681Z,24.25
2023-03-26T09:17:38.512Z,25.20
2023-03-26T09:20:27.300Z,22.95
2023-03-26T09:23:08.099Z,21.92
2023-03-26T09:25:44.313Z,21.42
2023-03-26T09:28:45.892Z,22.23
2023-03-26T09:31:34.747Z,22.10
2023-03-26T09:34:31.034Z,22.52
2023-03-26T09:37:19.928Z,22.75
2023-03-26T09:40:16.379Z,21.55
2023-03-26T09:43:08.717Z,21.48
2023-03-26T09:46:13.076Z,20.50
2023-03-26T09:49:05.497Z,21.02
2023-03-26T09:51:38.605Z,21.92
2023-03-26T09:54:30.937Z,19.95
2023-03-26T09:57:05.086Z,20.60
2023-03-26T09:59:49.595Z,20.20
2023-03-26T10:02:46.514Z,19.35
2023-03-26T10:05:21.605Z,18.85
2023-03-26T10:07:53.234Z,18.85
2023-03-26T10:10:50.985Z,19.07
2023-03-26T10:13:40.896Z,17.75
2023-03-26T10:16:18.318Z,18.58
2023-03-26T10:19:26.300Z,17.98
2023-03-26T10:22:05.377Z,18.92
2023-03-26T10:24:50.583Z,19.15
2023-03-26T10:27:27.340Z,19.60
2023-03-26T10:30:17.224Z,19.50
2023-03-26T10:33:06.032Z,20.02
2023-03-26T10:35:54.983Z,20.83
2023-03-26T10:38:51.736Z,18.85
2023-03-26T10:41:27.495Z,19.95
2023-03-26T10:44:19.301Z,18.98
2023-03-26T10:47:09.440Z,19.80
2023-03-26T10:49:51.250Z,20.17
2023-03-26T10:52:26.422Z,20.33
2023-03-26T10:55:02.095Z,20.60
2023-03-26T10:57:51.405Z,20.58
2023-03-26T11:00:26.520Z,21.90
2023-03-26T11:03:03.077Z,20.98
2023-03-26T11:05:47.400Z,21.77
2023-03-26T11:08:31.610Z,22.15
2023-03-26T11:11:25.166Z,21.50
2023-03-26T11:17:02.353Z,23.35
2023-03-26T11:19:40.632Z,21.52
2023-03-26T11:22:48.529Z,22.15
2023-03-26T11:25:37.102Z,21.35
2023-03-26T11:28:25.843Z,22.92
2023-03-26T11:31:17.222Z,22.85
2023-03-26T11:33:53.572Z,22.67
2023-03-26T11:36:30.857Z,23.65
2023-03-26T11:39:05.137Z,22.25
2023-03-26T11:41:34.112Z,23.08
2023-03-26T11:44:08.168Z,22.73
2023-03-26T11:46:46.851Z,22.58
2023-03-26T11:49:20.210Z,23.48
2023-03-26T11:51:50.194Z,23.10
2023-03-26T11:54:19.071Z,22.95
2023-03-26T11:57:05.754Z,23.10
2023-03-26T11:59:53.305Z,22.10
2023-03-26T12:02:38.984Z,24.05
2023-03-26T12:05:32.208Z,23.17
2023-03-26T12:08:03.284Z,23.75
2023-03-26T12:10:38.705Z,25.02
2023-03-26T12:13:24.568Z,24.80
2023-03-26T12:15:58.525Z,23.90
2023-03-26T12:18:29.494Z,24.40
2023-03-26T12:21:09.134Z,51.42
2023-03-26T12:23:40.453Z,40.20
2023-03-26T12:26:33.000Z,35.13
2023-03-26T12:29:12.952Z,26.60
2023-03-26T12:31:47.749Z,26.25
2023-03-26T12:34:19.755Z,25.52
2023-03-26T12:36:57.758Z,25.33
2023-03-26T12:40:07.821Z,26.17
2023-03-26T12:44:47.437Z,27.50
2023-03-26T12:45:24.142Z,27.38
2023-03-26T12:48:02.220Z,24.92
2023-03-26T12:50:58.339Z,27.00
2023-03-26T12:53:39.652Z,26.85
2023-03-26T12:56:09.306Z,26.05
2023-03-26T12:59:06.240Z,25.85
2023-03-26T13:01:56.895Z,26.52
2023-03-26T13:05:06.097Z,24.75
2023-03-26T13:08:08.572Z,25.40
2023-03-26T13:10:57.428Z,25.17
2023-03-26T13:13:53.790Z,26.25
2023-03-26T13:16:30.756Z,25.20
2023-03-26T13:19:06.870Z,26.95
2023-03-26T13:22:05.364Z,25.90
2023-03-26T13:24:48.142Z,25.30
2023-03-26T13:29:58.190Z,25.90
2023-03-26T13:32:40.327Z,26.75
2023-03-26T13:35:30.639Z,25.88
2023-03-26T13:38:25.118Z,26.92
2023-03-26T13:41:17.420Z,27.00
2023-03-26T13:43:53.274Z,26.67
2023-03-26T13:46:39.361Z,27.08
2023-03-26T13:49:14.991Z,28.65
2023-03-26T13:52:01.627Z,26.48
2023-03-26T13:54:33.784Z,26.83
2023-03-26T13:57:26.825Z,26.70
2023-03-26T14:02:32.563Z,27.60
2023-03-26T14:05:10.278Z,28.05
2023-03-26T14:07:47.758Z,27.85
2023-03-26T14:10:20.051Z,28.77
2023-03-26T14:12:56.904Z,28.75
2023-03-26T14:15:32.914Z,28.05
2023-03-26T14:18:29.648Z,27.75
2023-03-26T14:21:18.369Z,27.63
2023-03-26T14:24:08.310Z,27.42
2023-03-26T14:26:52.873Z,29.60
2023-03-26T14:29:56.880Z,30.27
2023-03-26T14:32:51.274Z,29.45
2023-03-26T14:35:55.769Z,30.30
2023-03-26T14:38:36.623Z,30.15
2023-03-26T14:41:08.328Z,32.03
2023-03-26T14:43:58.045Z,30.70
2023-03-26T14:46:42.364Z,30.50
2023-03-26T14:49:39.394Z,31.23
